Time;durP1;ratioP1;P1;durP2;ratioP2;P2;SDS_P1;SDS_P2;PMS_P1;PMS_P2;Temp;Humidity;BMP_temperature;BMP_pressure;BME280_temperature;BME280_humidity;BME280_pressure;Samples;Min_cycle;Max_cycle;Signal;HPM_P1;HPM_P2
2023/03/31 13:04:48;;;;;;;147.00;95.03;;;;;;;20.20;49.41;100349.84;5115149;27;20737;-55
2023/03/31 13:07:25;;;;;;;138.88;89.07;;;;;;;21.10;46.72;100380.06;5109722;28;20405;-56
2023/03/31 13:10:31;;;;;;;135.65;86.88;;;;;;;21.84;44.60;100377.69;5109539;28;20040;-54
2023/03/31 13:13:06;;;;;;;147.82;90.72;;;;;;;22.15;43.85;100378.91;5103714;28;20460;-52
2023/03/31 13:15:34;;;;;;;144.20;94.32;;;;;;;22.51;43.26;100389.75;5109701;28;20048;-50
2023/03/31 13:18:03;;;;;;;131.70;82.85;;;;;;;22.70;42.64;100377.75;5108583;28;20110;-56
2023/03/31 13:20:35;;;;;;;144.43;92.32;;;;;;;22.72;42.39;100385.63;5109243;28;20032;-56
2023/03/31 13:23:04;;;;;;;147.18;88.80;;;;;;;22.72;42.15;100376.03;5107825;28;20362;-49
2023/03/31 13:25:36;;;;;;;131.45;85.05;;;;;;;22.83;42.08;100381.38;5109668;28;20538;-56
2023/03/31 13:28:12;;;;;;;148.57;92.35;;;;;;;22.82;42.02;100390.09;5108700;28;20574;-55
2023/03/31 13:30:40;;;;;;;141.48;87.70;;;;;;;22.92;41.82;100394.50;5107585;28;20160;-49
2023/03/31 13:33:28;;;;;;;141.57;92.05;;;;;;;22.97;41.59;100375.38;5108879;28;20040;-54
2023/03/31 13:36:08;;;;;;;143.23;91.00;;;;;;;23.01;41.58;100387.59;5105881;28;20114;-50
2023/03/31 13:38:40;;;;;;;151.43;96.05;;;;;;;23.09;41.62;100385.03;5106397;28;20422;-49
2023/03/31 13:41:23;;;;;;;158.77;103.45;;;;;;;23.09;41.78;100369.34;5109060;28;20036;-53
2023/03/31 13:44:19;;;;;;;150.48;95.78;;;;;;;23.13;41.29;100392.94;5108876;28;20496;-54
2023/03/31 13:47:10;;;;;;;147.82;96.65;;;;;;;23.11;41.53;100394.66;5106093;28;20044;-53
2023/03/31 13:50:16;;;;;;;141.88;92.05;;;;;;;23.12;41.29;100392.91;5105476;28;20078;-56
2023/03/31 13:53:21;;;;;;;145.15;95.07;;;;;;;23.13;41.61;100402.50;5103027;28;20040;-54
2023/03/31 13:56:27;;;;;;;153.35;95.25;;;;;;;23.06;41.65;100415.56;5108810;28;20064;-50
2023/03/31 13:59:04;;;;;;;153.05;94.93;;;;;;;23.15;41.22;100419.09;5103900;28;20389;-53
2023/03/31 14:02:00;;;;;;;145.95;92.55;;;;;;;23.26;41.56;100419.22;5107502;28;20080;-55
2023/03/31 14:04:46;;;;;;;152.07;96.85;;;;;;;23.22;41.50;100418.34;5108501;28;20092;-49
2023/03/31 14:07:20;;;;;;;145.80;93.05;;;;;;;23.20;41.47;100418.31;5098054;28;20472;-56
2023/03/31 14:09:48;;;;;;;157.15;99.55;;;;;;;23.22;41.24;100426.19;5108783;28;20032;-52
2023/03/31 14:12:39;;;;;;;151.43;97.22;;;;;;;23.15;41.60;100427.84;5105496;28;20024;-52
2023/03/31 14:15:17;;;;;;;168.07;107.18;;;;;;;23.21;41.48;100425.28;5097583;28;20069;-48
2023/03/31 14:17:46;;;;;;;170.10;107.35;;;;;;;23.25;41.60;100423.56;5093849;28;20469;-56
2023/03/31 14:20:34;;;;;;;162.60;104.07;;;;;;;23.29;41.16;100433.19;5094999;28;20028;-48
2023/03/31 14:23:13;;;;;;;172.85;110.43;;;;;;;23.32;40.99;100425.38;5090080;28;20500;-49
2023/03/31 14:25:52;;;;;;;161.98;101.60;;;;;;;23.25;41.24;100418.34;5095164;28;20028;-50
2023/03/31 14:28:40;;;;;;;177.73;110.32;;;;;;;23.26;41.36;100434.94;5093396;28;20024;-48
2023/03/31 14:31:34;;;;;;;172.27;111.07;;;;;;;23.33;41.51;100436.75;5091912;28;20032;-48
2023/03/31 14:34:24;;;;;;;178.90;115.32;;;;;;;23.40;41.11;100438.53;5092650;28;20075;-56
2023/03/31 14:37:07;;;;;;;174.82;109.80;;;;;;;23.32;41.33;100430.63;5091408;28;20473;-48
2023/03/31 14:39:40;;;;;;;185.23;113.20;;;;;;;23.28;41.38;100425.34;5093316;28;20157;-48
2023/03/31 14:42:28;;;;;;;178.60;111.72;;;;;;;23.33;41.46;100455.06;5091003;28;20024;-52
2023/03/31 14:45:01;;;;;;;164.02;105.65;;;;;;;23.28;41.17;100448.91;5094154;28;20413;-48
2023/03/31 14:47:30;;;;;;;157.80;101.10;;;;;;;23.30;40.95;100455.03;5095244;28;20020;-55
2023/03/31 14:50:20;;;;;;;170.88;110.18;;;;;;;23.28;40.98;100444.53;5095462;28;20148;-50
2023/03/31 14:52:51;;;;;;;175.55;109.40;;;;;;;23.30;40.78;100442.81;5095174;28;20016;-51
2023/03/31 14:55:24;;;;;;;168.15;106.78;;;;;;;23.36;40.73;100445.47;5095532;28;20024;-48
2023/03/31 14:57:53;;;;;;;165.38;105.20;;;;;;;23.35;40.47;100453.31;5094593;28;20129;-48
2023/03/31 15:00:27;;;;;;;163.93;103.90;;;;;;;23.33;40.86;100455.06;5095263;28;20032;-48
2023/03/31 15:02:56;;;;;;;168.02;103.43;;;;;;;23.30;40.87;100457.66;5094795;28;20121;-48
2023/03/31 15:05:29;;;;;;;162.68;107.00;;;;;;;23.21;40.79;100451.47;5094984;28;20089;-51
2023/03/31 15:07:59;;;;;;;171.98;107.35;;;;;;;23.20;40.98;100451.44;5093439;28;20048;-48
2023/03/31 15:10:33;;;;;;;162.82;103.55;;;;;;;23.26;40.74;100459.34;5094811;28;20039;-49
2023/03/31 15:13:09;;;;;;;157.65;104.82;;;;;;;23.32;40.57;100466.41;5094475;28;20031;-48
2023/03/31 15:15:37;;;;;;;163.32;106.22;;;;;;;23.29;40.94;100462.00;5095094;28;20028;-49
2023/03/31 15:18:06;;;;;;;160.88;106.45;;;;;;;23.29;40.49;100448.03;5094932;28;20020;-48
2023/03/31 15:20:40;;;;;;;168.75;103.25;;;;;;;23.29;40.42;100462.00;5094712;28;20043;-48
2023/03/31 15:23:28;;;;;;;165.63;108.47;;;;;;;23.35;40.81;100454.19;5093085;28;20217;-47
2023/03/31 15:26:01;;;;;;;167.65;107.50;;;;;;;23.30;40.97;100457.66;5093954;28;20020;-47
2023/03/31 15:28:36;;;;;;;176.90;111.30;;;;;;;23.25;41.18;100468.06;5093188;28;20384;-54
2023/03/31 15:31:04;;;;;;;168.60;109.75;;;;;;;23.28;40.55;100468.09;5094576;28;20032;-55
2023/03/31 15:33:39;;;;;;;179.90;118.40;;;;;;;23.25;41.13;100459.34;5094088;28;20110;-54
2023/03/31 15:36:08;;;;;;;;;;;;;;;23.41;40.72;100479.53;5094044;28;20120;-54
2023/03/31 15:38:37;;;;;;;180.25;114.97;;;;;;;23.33;40.66;100462.91;5093886;28;20262;-53
2023/03/31 15:41:16;;;;;;;183.98;116.65;;;;;;;23.29;41.01;100467.22;5094183;28;20111;-54
2023/03/31 15:43:49;;;;;;;184.85;119.88;;;;;;;23.31;40.89;100462.88;5093159;28;20032;-55
2023/03/31 15:46:36;;;;;;;180.80;116.30;;;;;;;23.31;40.82;100462.03;5094284;28;20389;-55
2023/03/31 15:49:04;;;;;;;187.77;118.10;;;;;;;23.41;40.85;100473.44;5092944;28;20055;-54
2023/03/31 15:51:42;;;;;;;179.38;115.05;;;;;;;23.42;41.04;100473.44;5092130;28;20030;-56
2023/03/31 15:54:33;;;;;;;185.63;116.65;;;;;;;23.44;40.88;100476.94;5094131;28;20089;-53
2023/03/31 15:57:03;;;;;;;181.82;113.20;;;;;;;23.42;40.68;100467.31;5088476;28;20036;-55
2023/03/31 15:59:54;;;;;;;187.68;113.85;;;;;;;23.42;40.46;100478.66;5094080;28;20047;-54
2023/03/31 16:02:25;;;;;;;183.32;113.55;;;;;;;23.38;40.69;100479.50;5093609;28;20024;-54
2023/03/31 16:05:02;;;;;;;179.90;111.13;;;;;;;23.34;41.04;100493.44;5094294;28;20085;-53
2023/03/31 16:07:34;;;;;;;178.27;111.18;;;;;;;23.36;40.71;100482.13;5093980;28;20028;-56
2023/03/31 16:10:04;;;;;;;198.27;113.00;;;;;;;23.43;40.94;100488.28;5094068;28;20431;-54
2023/03/31 16:12:41;;;;;;;197.02;114.28;;;;;;;23.40;40.82;100476.91;5092326;28;20024;-54
2023/03/31 16:15:14;;;;;;;191.85;118.57;;;;;;;23.46;40.93;100482.19;5093842;28;20028;-54
2023/03/31 16:17:48;;;;;;;194.57;118.68;;;;;;;23.52;40.86;100477.00;5093484;28;20111;-53
2023/03/31 16:20:24;;;;;;;195.55;117.00;;;;;;;23.48;41.08;100476.13;5091775;28;20028;-55
2023/03/31 16:22:55;;;;;;;190.20;114.13;;;;;;;23.45;41.05;100483.03;5092447;28;20123;-54
2023/03/31 16:25:26;;;;;;;198.38;113.85;;;;;;;23.45;41.15;100497.03;5093680;28;20028;-53
2023/03/31 16:27:57;;;;;;;184.55;112.07;;;;;;;23.44;40.60;100497.00;5093564;28;20450;-55
2023/03/31 16:30:35;;;;;;;190.77;106.13;;;;;;;23.47;40.92;100492.69;5093517;28;20389;-54
2023/03/31 16:33:06;;;;;;;179.27;106.35;;;;;;;23.42;40.74;100503.94;5093521;28;20032;-54
2023/03/31 16:35:40;;;;;;;183.85;106.78;;;;;;;23.50;40.74;100489.19;5093477;28;20035;-54
2023/03/31 16:38:10;;;;;;;176.50;105.55;;;;;;;23.50;40.55;100497.91;5093386;28;20024;-54
2023/03/31 16:40:40;;;;;;;167.70;106.93;;;;;;;23.49;40.68;100500.53;5093377;28;20032;-54
2023/03/31 16:43:19;;;;;;;175.18;106.85;;;;;;;23.51;40.68;100504.91;5093163;28;20068;-54
2023/03/31 16:45:49;;;;;;;161.10;97.82;;;;;;;23.46;40.83;100501.41;5093495;28;20051;-53
2023/03/31 16:48:20;;;;;;;164.02;98.82;;;;;;;23.39;40.83;100510.06;5092949;28;20036;-53
2023/03/31 16:50:51;;;;;;;166.52;99.57;;;;;;;23.51;40.75;100504.91;5091957;28;20028;-56
2023/03/31 16:53:22;;;;;;;153.40;96.82;;;;;;;23.49;40.97;100504.03;5092956;28;20027;-55
2023/03/31 16:55:51;;;;;;;156.85;97.18;;;;;;;23.55;40.13;100494.47;5091964;28;20043;-54
2023/03/31 16:58:20;;;;;;;158.07;97.50;;;;;;;23.54;40.48;100496.22;5091647;28;20035;-54
2023/03/31 17:00:49;;;;;;;143.73;90.47;;;;;;;23.49;40.73;100500.53;5092847;28;20469;-54
2023/03/31 17:03:17;;;;;;;150.25;88.50;;;;;;;23.43;40.58;100498.75;5091401;28;20102;-56
2023/03/31 17:05:51;;;;;;;154.45;94.63;;;;;;;23.61;40.36;100507.63;5091868;28;20024;-55
2023/03/31 17:08:21;;;;;;;140.40;87.70;;;;;;;23.61;40.31;100511.09;5091880;28;20024;-55
2023/03/31 17:10:53;;;;;;;149.45;89.85;;;;;;;23.57;40.42;100518.91;5092791;28;20032;-56
2023/03/31 17:13:22;;;;;;;146.93;89.60;;;;;;;23.62;40.55;100517.22;5092535;28;20499;-55
2023/03/31 17:15:51;;;;;;;151.52;92.43;;;;;;;23.57;40.49;100511.97;5091330;28;20040;-54
2023/03/31 17:18:19;;;;;;;151.63;91.60;;;;;;;23.65;40.33;100510.25;5092903;28;20028;-53
2023/03/31 17:20:48;;;;;;;142.18;89.00;;;;;;;23.67;40.04;100487.56;5091476;28;20073;-56
2023/03/31 17:23:17;;;;;;;134.35;78.88;;;;;;;23.69;40.40;100523.38;5092267;28;20075;-56
2023/03/31 17:25:49;;;;;;;125.18;77.35;;;;;;;23.54;40.53;100514.56;5091938;28;20101;-55
2023/03/31 17:28:18;;;;;;;127.10;75.72;;;;;;;23.52;40.37;100521.50;5092884;28;20496;-54
2023/03/31 17:30:47;;;;;;;123.60;73.05;;;;;;;23.64;40.23;100523.34;5093136;28;20028;-56
2023/03/31 17:33:16;;;;;;;117.07;71.32;;;;;;;23.64;40.41;100518.13;5092331;28;20425;-55
2023/03/31 17:35:45;;;;;;;111.65;69.43;;;;;;;23.67;40.50;100533.81;5092793;28;20024;-55
2023/03/31 17:38:13;;;;;;;115.18;68.13;;;;;;;23.74;39.81;100532.16;5092229;28;20028;-56
2023/03/31 17:40:42;;;;;;;108.43;64.20;;;;;;;23.72;39.61;100539.13;5092937;28;20020;-57
2023/03/31 17:43:11;;;;;;;109.35;65.38;;;;;;;23.70;39.83;100533.84;5092471;28;20091;-56
2023/03/31 17:45:40;;;;;;;104.13;61.38;;;;;;;23.72;40.09;100539.13;5092494;28;20027;-56
2023/03/31 17:48:08;;;;;;;101.40;61.35;;;;;;;23.72;39.97;100539.13;5090820;28;20081;-55
2023/03/31 17:50:37;;;;;;;98.22;60.35;;;;;;;23.77;40.10;100542.63;5093401;28;20107;-54
2023/03/31 17:53:07;;;;;;;99.18;58.25;;;;;;;23.77;40.25;100550.47;5096355;28;20028;-55
2023/03/31 17:55:37;;;;;;;96.90;59.83;;;;;;;23.80;40.11;100556.66;5096140;28;20031;-53
2023/03/31 17:58:07;;;;;;;103.70;60.78;;;;;;;23.77;40.64;100548.75;5096618;28;20500;-55
2023/03/31 18:00:36;;;;;;;104.63;65.20;;;;;;;23.85;40.82;100555.78;5096386;28;20393;-56
2023/03/31 18:03:04;;;;;;;102.05;62.47;;;;;;;23.90;40.80;100554.06;5096015;28;20101;-56
2023/03/31 18:05:37;;;;;;;104.18;60.60;;;;;;;23.96;40.45;100570.75;5096237;28;20035;-55
2023/03/31 18:08:06;;;;;;;95.75;60.60;;;;;;;23.92;40.96;100575.94;5095851;28;20024;-56
2023/03/31 18:10:34;;;;;;;93.22;59.47;;;;;;;23.91;40.90;100575.03;5096233;28;20036;-56
2023/03/31 18:13:02;;;;;;;96.93;63.20;;;;;;;23.97;41.02;100576.88;5096064;28;20452;-56
2023/03/31 18:15:32;;;;;;;105.93;69.25;;;;;;;24.02;40.92;100572.53;5094376;28;20090;-56
2023/03/31 18:18:00;;;;;;;113.40;71.60;;;;;;;24.08;40.74;100580.44;5096095;28;20481;-55
2023/03/31 18:20:29;;;;;;;124.50;81.18;;;;;;;24.06;41.07;100574.31;5094936;28;20028;-56
2023/03/31 18:22:59;;;;;;;118.22;79.03;;;;;;;24.15;40.43;100581.34;5094482;28;20477;-56
2023/03/31 18:25:27;;;;;;;121.95;82.72;;;;;;;24.10;40.76;100589.19;5095942;28;20024;-56
2023/03/31 18:27:56;;;;;;;127.60;84.60;;;;;;;24.16;40.96;100595.34;5095314;28;20482;-56
2023/03/31 18:30:25;;;;;;;132.32;86.95;;;;;;;24.21;40.88;100594.50;5095475;28;20051;-56
2023/03/31 18:32:54;;;;;;;124.13;81.25;;;;;;;24.28;40.76;100605.91;5095627;28;20032;-56
2023/03/31 18:35:23;;;;;;;123.70;83.35;;;;;;;24.31;40.58;100603.31;5095725;28;20069;-56
2023/03/31 18:37:52;;;;;;;126.05;83.72;;;;;;;24.36;40.16;100612.03;5095798;28;20020;-56
2023/03/31 18:40:20;;;;;;;129.38;82.18;;;;;;;24.36;40.16;100605.94;5095388;28;20406;-55
2023/03/31 18:42:49;;;;;;;123.47;80.00;;;;;;;24.33;40.30;100613.78;5093918;28;20491;-57
2023/03/31 18:45:18;;;;;;;121.80;78.50;;;;;;;24.37;40.21;100612.94;5095534;28;20028;-56
2023/03/31 18:47:46;;;;;;;119.85;77.70;;;;;;;24.39;39.82;100604.19;5094852;28;20031;-56
2023/03/31 18:50:15;;;;;;;115.22;73.07;;;;;;;24.45;40.05;100624.34;5095587;28;20483;-55
2023/03/31 18:52:44;;;;;;;108.55;70.28;;;;;;;24.40;39.60;100618.22;5094930;28;20024;-56
2023/03/31 18:55:12;;;;;;;108.43;71.15;;;;;;;24.40;40.12;100620.81;5095218;28;20028;-57
2023/03/31 18:57:41;;;;;;;109.07;68.10;;;;;;;24.41;39.72;100617.31;5095222;28;20028;-57
2023/03/31 19:00:10;;;;;;;99.72;62.83;;;;;;;24.50;39.76;100608.63;5095123;28;20031;-57
2023/03/31 19:02:39;;;;;;;102.05;65.43;;;;;;;24.45;39.60;100611.22;5094644;28;20032;-56
2023/03/31 19:05:06;;;;;;;104.15;66.55;;;;;;;24.49;39.57;100622.63;5093874;28;20028;-56
2023/03/31 19:07:34;;;;;;;101.65;64.38;;;;;;;24.42;39.86;100625.19;5093266;28;20024;-54
2023/03/31 19:10:02;;;;;;;96.88;63.72;;;;;;;24.42;40.10;100622.56;5093859;28;20028;-53
2023/03/31 19:12:29;;;;;;;96.18;62.97;;;;;;;24.49;39.88;100623.50;5094169;28;20028;-54
2023/03/31 19:14:57;;;;;;;96.10;59.95;;;;;;;24.52;39.83;100623.50;5093045;28;20024;-54
2023/03/31 19:17:24;;;;;;;90.90;59.75;;;;;;;24.54;39.81;100626.13;5094184;28;20035;-54
2023/03/31 19:19:52;;;;;;;93.03;61.30;;;;;;;24.55;39.58;100628.78;5093140;28;20102;-54
2023/03/31 19:22:19;;;;;;;90.60;56.35;;;;;;;24.55;39.87;100633.13;5092581;28;20020;-55
2023/03/31 19:24:47;;;;;;;85.55;54.40;;;;;;;24.51;39.81;100636.59;5093793;28;20032;-53
2023/03/31 19:27:14;;;;;;;87.35;54.40;;;;;;;24.57;39.39;100655.84;5090001;28;20055;-53
2023/03/31 19:29:41;;;;;;;81.93;52.88;;;;;;;24.54;39.56;100657.59;5093712;28;20035;-55
2023/03/31 19:32:09;;;;;;;83.80;51.45;;;;;;;24.60;39.61;100648.88;5092098;28;20111;-55
2023/03/31 19:34:37;;;;;;;83.68;54.50;;;;;;;24.64;39.60;100653.28;5093645;28;20035;-54
2023/03/31 19:37:04;;;;;;;78.70;51.47;;;;;;;24.60;39.26;100662.88;5093743;28;20457;-53
2023/03/31 19:39:32;;;;;;;89.32;54.90;;;;;;;24.62;39.48;100666.41;5093930;28;20129;-55
2023/03/31 19:42:01;;;;;;;89.60;53.55;;;;;;;24.54;39.81;100648.00;5092335;28;20024;-54
2023/03/31 19:44:28;;;;;;;84.60;53.85;;;;;;;24.61;39.56;100664.66;5093533;28;20028;-54
2023/03/31 19:46:57;;;;;;;85.47;52.00;;;;;;;24.60;39.64;100673.38;5093390;28;20062;-54
